Time;durP1;ratioP1;P1;durP2;ratioP2;P2;SDS_P1;SDS_P2;PMS_P1;PMS_P2;Temp;Humidity;BMP_temperature;BMP_pressure;BME280_temperature;BME280_humidity;BME280_pressure;Samples;Min_cycle;Max_cycle;Signal;HPM_P1;HPM_P2
2022/03/12 00:00:48;;;;;;;41.42;21.37;;;;;;;-1.12;56.01;101604.95;2777715;84;21571;-71
2022/03/12 00:04:47;;;;;;;38.48;22.42;;;;;;;-0.99;55.66;101602.63;2755912;85;21113;-72
2022/03/12 00:08:51;;;;;;;33.48;20.62;;;;;;;-0.99;55.66;101602.63;2749051;85;21054;-73
2022/03/12 00:12:53;;;;;;;48.23;24.15;;;;;;;-0.95;55.21;101600.39;2749245;86;21633;-73
2022/03/12 00:16:55;;;;;;;45.78;23.00;;;;;;;-0.89;54.61;101592.46;2748983;86;21093;-73
2022/03/12 00:21:02;;;;;;;38.20;22.45;;;;;;;-0.85;54.73;101590.69;2751492;85;21105;-73
2022/03/12 00:25:01;;;;;;;44.98;26.40;;;;;;;-0.82;55.19;101590.63;2758025;86;21102;-73
2022/03/12 00:29:03;;;;;;;41.33;23.70;;;;;;;-0.84;55.32;101578.50;2758218;86;21311;-73
2022/03/12 00:33:05;;;;;;;37.00;23.07;;;;;;;-0.94;55.40;101568.61;2757744;86;21578;-73
2022/03/12 00:37:07;;;;;;;43.48;24.00;;;;;;;-0.92;55.43;101589.05;2748751;86;21034;-73
2022/03/12 00:41:09;;;;;;;39.80;23.73;;;;;;;-0.93;55.50;101586.86;2749435;86;21014;-72
2022/03/12 00:45:11;;;;;;;43.00;25.40;;;;;;;-0.97;55.78;101583.88;2749054;86;21014;-73
2022/03/12 00:49:13;;;;;;;48.65;26.82;;;;;;;-1.12;55.75;101563.16;2749164;86;21057;-72
2022/03/12 00:53:14;;;;;;;41.92;24.90;;;;;;;-1.06;55.69;101573.56;2749297;86;21057;-72
2022/03/12 00:57:16;;;;;;;42.00;24.32;;;;;;;-1.08;56.15;101581.40;2752399;85;21071;-71
2022/03/12 01:01:17;;;;;;;46.70;25.12;;;;;;;-1.13;56.34;101581.02;2751804;85;21034;-73
2022/03/12 01:05:40;;;;;;;39.33;22.98;;;;;;;-1.23;56.47;101578.97;2786351;83;21345;-73
2022/03/12 01:09:42;;;;;;;44.13;25.55;;;;;;;-1.23;56.07;101580.27;2796878;83;21038;-72
2022/03/12 01:13:43;;;;;;;54.13;20.43;;;;;;;-1.24;56.13;101570.28;2796884;83;20995;-72
2022/03/12 01:17:45;;;;;;;46.33;26.93;;;;;;;-1.26;56.25;101563.34;2796735;84;21030;-72
2022/03/12 01:21:46;;;;;;;45.52;21.82;;;;;;;-1.18;56.06;101568.02;2799626;84;21078;-73
2022/03/12 01:25:48;;;;;;;34.55;23.30;;;;;;;-1.21;56.04;101565.02;2804041;84;21073;-71
2022/03/12 01:29:49;;;;;;;38.98;20.80;;;;;;;-1.17;56.02;101569.77;2802332;84;21104;-73
2022/03/12 01:33:51;;;;;;;47.25;26.15;;;;;;;-1.25;56.10;101565.06;2794549;85;21084;-72
2022/03/12 01:37:53;;;;;;;42.43;24.90;;;;;;;-1.54;57.01;101536.27;2794808;85;21115;-72
2022/03/12 01:41:55;;;;;;;48.58;20.50;;;;;;;-1.60;58.00;101570.66;2794952;84;21061;-72
2022/03/12 01:46:00;;;;;;;44.10;26.25;;;;;;;-1.69;58.23;101567.28;2796294;84;21041;-70
2022/03/12 01:50:01;;;;;;;48.85;21.57;;;;;;;-1.85;58.22;101550.92;2794964;85;21056;-71
2022/03/12 01:54:04;;;;;;;41.60;20.77;;;;;;;-1.85;58.22;101550.92;2794630;85;21124;-71
2022/03/12 01:58:07;;;;;;;44.25;27.27;;;;;;;-1.72;58.31;101568.20;2794585;85;21025;-72
2022/03/12 02:02:13;;;;;;;42.80;25.80;;;;;;;-1.73;57.97;101549.51;2794957;85;21065;-70
2022/03/12 02:06:19;;;;;;;39.42;22.40;;;;;;;-1.64;58.19;101565.05;2802587;83;21027;-73
2022/03/12 02:10:22;;;;;;;40.10;24.77;;;;;;;-1.60;57.84;101563.29;2804712;83;21074;-72
2022/03/12 02:14:26;;;;;;;39.40;21.52;;;;;;;-1.64;57.43;101542.03;2808804;84;21057;-71
2022/03/12 02:18:27;;;;;;;37.53;22.82;;;;;;;-1.65;57.84;101545.06;2811084;84;21049;-71
2022/03/12 02:22:29;;;;;;;39.08;22.87;;;;;;;-1.65;57.84;101545.06;2811076;84;21092;-72
2022/03/12 02:26:31;;;;;;;41.88;23.90;;;;;;;-1.64;57.98;101547.25;2810618;84;21077;-73
2022/03/12 02:30:47;;;;;;;42.40;24.67;;;;;;;-1.84;58.25;101527.88;2811058;84;21676;-72
2022/03/12 02:34:46;;;;;;;48.13;26.20;;;;;;;-1.84;58.25;101527.88;2808887;84;21109;-71
2022/03/12 02:38:49;;;;;;;36.98;23.10;;;;;;;-1.67;57.87;101540.30;2806059;84;21546;-72
2022/03/12 02:42:54;;;;;;;38.55;23.45;;;;;;;-1.78;57.42;101517.36;2811143;84;21062;-72
2022/03/12 02:47:14;;;;;;;50.12;24.85;;;;;;;-1.74;57.80;101530.83;2811154;84;21058;-72
2022/03/12 02:51:16;;;;;;;44.23;23.30;;;;;;;-1.74;57.80;101530.83;2810572;84;21117;-73
2022/03/12 02:55:22;;;;;;;44.55;24.87;;;;;;;-1.89;58.90;101536.61;2809956;84;21073;-72
2022/03/12 02:59:24;;;;;;;49.48;25.70;;;;;;;-1.93;59.20;101537.53;2810573;84;21089;-73
2022/03/12 03:03:26;;;;;;;39.42;24.45;;;;;;;-2.08;59.68;101521.56;2807171;84;21094;-73
2022/03/12 03:07:29;;;;;;;43.13;25.50;;;;;;;-2.04;59.78;101525.02;2787273;85;21614;-72
2022/03/12 03:11:35;;;;;;;38.63;22.02;;;;;;;-2.03;59.68;101529.35;2780971;85;21141;-70
2022/03/12 03:15:36;;;;;;;46.25;26.45;;;;;;;-1.98;59.40;101523.65;2787934;85;21039;-73
2022/03/12 03:19:39;;;;;;;48.80;27.65;;;;;;;-2.01;59.34;101523.25;2786601;85;21079;-72
2022/03/12 03:23:44;;;;;;;48.45;22.02;;;;;;;-2.01;59.20;101528.89;2777366;85;21666;-71
2022/03/12 03:27:47;;;;;;;37.28;21.48;;;;;;;-1.99;59.16;101524.53;2780278;85;21064;-72
2022/03/12 03:31:49;;;;;;;40.38;20.92;;;;;;;-1.99;59.17;101532.35;2786537;85;20999;-73
2022/03/12 03:35:51;;;;;;;37.90;22.50;;;;;;;-2.07;59.07;101526.36;2787749;85;21062;-71
2022/03/12 03:39:53;;;;;;;47.15;26.10;;;;;;;-1.99;58.92;101536.27;2776913;85;21659;-72
2022/03/12 03:43:54;;;;;;;43.33;25.92;;;;;;;-2.01;59.02;101531.08;2774948;85;21034;-72
2022/03/12 03:47:57;;;;;;;42.25;26.27;;;;;;;-1.93;58.91;101531.44;2775489;85;21041;-72
2022/03/12 03:51:58;;;;;;;51.25;25.85;;;;;;;-1.99;58.94;101522.38;2775036;85;21026;-73
2022/03/12 03:56:01;;;;;;;38.55;25.00;;;;;;;-1.98;58.73;101521.49;2774786;85;21116;-72
2022/03/12 04:00:05;;;;;;;45.75;22.17;;;;;;;-1.98;59.21;101526.71;2775549;85;21002;-72
2022/03/12 04:04:07;;;;;;;42.25;24.60;;;;;;;-1.95;59.14;101527.98;2768666;85;21106;-72
2022/03/12 04:08:09;;;;;;;39.55;21.20;;;;;;;-1.98;59.33;101524.95;2749475;85;21522;-72
2022/03/12 04:12:11;;;;;;;53.25;27.40;;;;;;;-2.01;59.21;101536.72;2749438;86;21050;-73
2022/03/12 04:16:19;;;;;;;42.30;24.52;;;;;;;-2.02;59.07;101528.47;2749401;86;21640;-73
2022/03/12 04:20:22;;;;;;;38.98;21.70;;;;;;;-2.04;59.11;101535.45;2752338;86;21065;-72
2022/03/12 04:24:26;;;;;;;33.10;23.77;;;;;;;-2.08;59.01;101537.66;2750439;86;21041;-71
2022/03/12 04:28:32;;;;;;;43.25;23.55;;;;;;;-2.09;59.14;101532.88;2749825;86;21141;-72
2022/03/12 04:32:34;;;;;;;46.93;23.77;;;;;;;-2.13;59.37;101527.27;2749889;86;21049;-71
2022/03/12 04:36:36;;;;;;;41.90;20.72;;;;;;;-2.16;59.62;101532.52;2749086;86;21057;-72
2022/03/12 04:40:41;;;;;;;35.80;19.82;;;;;;;-2.17;59.74;101523.81;2749470;85;21038;-72
2022/03/12 04:44:42;;;;;;;42.38;24.60;;;;;;;-2.21;59.71;101522.58;2749801;86;21066;-71
2022/03/12 04:48:44;;;;;;;43.38;24.75;;;;;;;-2.18;59.46;101522.55;2751595;86;21090;-72
2022/03/12 04:52:50;;;;;;;38.13;22.40;;;;;;;-2.15;59.58;101519.91;2758627;86;20975;-72
2022/03/12 04:56:53;;;;;;;43.47;23.40;;;;;;;-2.18;59.32;101522.09;2759543;86;21070;-72
2022/03/12 05:00:54;;;;;;;41.63;23.57;;;;;;;-2.17;59.47;101522.97;2755713;85;21101;-72
2022/03/12 05:04:56;;;;;;;34.33;23.18;;;;;;;-2.22;59.71;101524.76;2768079;85;21062;-72
2022/03/12 05:08:57;;;;;;;43.95;24.70;;;;;;;-2.22;59.90;101519.55;2797292;85;21078;-71
2022/03/12 05:13:02;;;;;;;42.15;26.30;;;;;;;-2.26;59.96;101520.00;2796608;85;21078;-72
2022/03/12 05:17:08;;;;;;;42.70;24.67;;;;;;;-2.28;60.24;101518.27;2797071;85;21101;-72
2022/03/12 05:21:08;;;;;;;47.33;26.10;;;;;;;-2.30;60.56;101517.00;2796870;85;21050;-72
2022/03/12 05:25:11;;;;;;;34.05;24.95;;;;;;;-2.37;60.57;101519.21;2797229;85;21431;-71
2022/03/12 05:29:13;;;;;;;43.25;25.65;;;;;;;-2.42;60.75;101511.87;2797435;85;21062;-72
2022/03/12 05:33:17;;;;;;;45.17;27.82;;;;;;;-2.40;60.93;101511.42;2796765;85;21088;-71
2022/03/12 05:37:20;;;;;;;45.92;23.62;;;;;;;-2.39;60.95;101506.63;2796964;85;21614;-72
2022/03/12 05:41:22;;;;;;;46.70;26.05;;;;;;;-2.38;60.97;101514.45;2796958;85;21027;-72
2022/03/12 05:45:24;;;;;;;53.33;28.10;;;;;;;-2.30;61.05;101515.70;2797469;85;21059;-72
2022/03/12 05:49:25;;;;;;;47.15;26.82;;;;;;;-2.20;60.63;101515.18;2797287;85;21630;-72
2022/03/12 05:53:28;;;;;;;41.10;25.30;;;;;;;-2.06;60.69;101513.31;2797066;85;21081;-71
2022/03/12 05:57:31;;;;;;;41.45;26.12;;;;;;;-1.93;60.37;101514.48;2797188;84;21043;-72
2022/03/12 06:01:32;;;;;;;51.28;25.32;;;;;;;-1.84;60.18;101518.74;2797318;84;21094;-72
2022/03/12 06:05:40;;;;;;;66.10;39.65;;;;;;;-1.75;59.83;101510.84;2799010;84;21050;-72
2022/03/12 06:09:37;;;;;;;45.23;26.17;;;;;;;-1.67;59.68;101504.20;2800134;83;21030;-72
2022/03/12 06:13:50;;;;;;;48.50;30.52;;;;;;;-1.55;59.48;101519.73;2800503;83;21644;-72
2022/03/12 06:17:44;;;;;;;45.10;27.05;;;;;;;-1.49;59.23;101519.65;2789618;84;21081;-70
2022/03/12 06:21:47;;;;;;;49.63;31.48;;;;;;;-1.34;59.01;101513.83;2785914;84;21061;-72
2022/03/12 06:25:49;;;;;;;51.15;26.12;;;;;;;-1.20;58.79;101511.03;2762726;84;21066;-72
2022/03/12 06:29:51;;;;;;;40.65;24.37;;;;;;;-1.05;58.67;101478.19;2760008;86;21074;-72
2022/03/12 06:33:54;;;;;;;46.18;28.57;;;;;;;-0.69;57.82;101512.08;2759890;86;21022;-73
2022/03/12 06:37:56;;;;;;;47.60;26.55;;;;;;;-0.69;57.82;101512.08;2760408;86;20996;-73
2022/03/12 06:41:58;;;;;;;46.68;25.80;;;;;;;-0.55;57.10;101504.02;2776515;84;20975;-73
2022/03/12 06:46:01;;;;;;;61.83;30.75;;;;;;;-0.45;57.30;101503.84;2763665;84;21002;-73
2022/03/12 06:50:08;;;;;;;51.08;28.92;;;;;;;-0.13;56.68;101505.49;2760114;86;21622;-72
2022/03/12 06:54:10;;;;;;;49.60;27.50;;;;;;;0.26;55.93;101511.34;2759914;85;21070;-74
2022/03/12 06:58:12;;;;;;;48.05;27.50;;;;;;;0.61;55.34;101516.34;2759967;86;21129;-73
2022/03/12 07:02:14;;;;;;;46.73;28.80;;;;;;;0.98;54.14;101515.56;2760499;86;21102;-79
2022/03/12 07:06:16;;;;;;;53.38;28.70;;;;;;;1.22;53.92;101511.97;2760341;86;21074;-79
2022/03/12 07:10:18;;;;;;;49.80;27.75;;;;;;;1.48;53.22;101513.56;2760263;86;21034;-78
2022/03/12 07:14:21;;;;;;;104.12;63.65;;;;;;;1.50;52.66;101509.14;2777421;84;21126;-77
2022/03/12 07:18:23;;;;;;;60.80;36.03;;;;;;;1.53;53.14;101502.05;2760932;86;21058;-78
2022/03/12 07:22:25;;;;;;;53.75;32.75;;;;;;;1.66;53.23;101507.00;2760086;86;21058;-73
2022/03/12 07:26:26;;;;;;;49.67;30.32;;;;;;;1.72;52.73;101508.14;2780265;85;21066;-78
2022/03/12 07:30:30;;;;;;;52.43;33.42;;;;;;;1.82;52.09;101497.84;2797123;85;21671;-78
2022/03/12 07:34:31;;;;;;;51.20;31.12;;;;;;;2.00;52.22;101496.48;2797477;85;21028;-79
2022/03/12 07:38:34;;;;;;;46.85;28.67;;;;;;;2.26;51.87;101501.94;2796554;85;21062;-80
2022/03/12 07:42:36;;;;;;;46.73;27.35;;;;;;;2.46;50.87;101501.40;2799559;84;21053;-80
2022/03/12 07:46:38;;;;;;;44.58;28.77;;;;;;;2.64;50.11;101501.30;2796210;84;21070;-74
2022/03/12 07:50:40;;;;;;;43.13;26.65;;;;;;;2.87;49.47;101498.45;2801977;83;21544;-75
2022/03/12 07:54:41;;;;;;;48.73;27.75;;;;;;;3.04;49.23;101500.55;2808754;83;21074;-75
2022/03/12 07:58:43;;;;;;;42.05;24.45;;;;;;;3.22;48.26;101495.19;2802438;83;21485;-75
2022/03/12 08:02:47;;;;;;;53.15;27.37;;;;;;;3.50;47.90;101495.60;2800340;84;21105;-74
2022/03/12 08:06:50;;;;;;;34.65;23.22;;;;;;;3.83;47.99;101495.39;2795458;83;21098;-77
2022/03/12 08:15:12;;;;;;;32.90;19.20;;;;;;;4.38;45.73;101497.00;2786521;85;21099;-76
2022/03/12 08:19:13;;;;;;;39.33;25.05;;;;;;;4.51;45.87;101488.17;2787624;85;21043;-75
2022/03/12 08:23:15;;;;;;;33.85;19.77;;;;;;;4.74;44.73;101492.19;2787034;85;21111;-76
2022/03/12 08:27:17;;;;;;;36.15;19.87;;;;;;;4.86;44.95;101487.75;2787135;85;21061;-78
2022/03/12 08:31:19;;;;;;;45.52;24.70;;;;;;;5.15;44.53;101487.08;2781062;84;21557;-79
2022/03/12 08:35:21;;;;;;;48.70;33.63;;;;;;;5.25;43.92;101489.73;2776707;85;21081;-78
2022/03/12 08:39:23;;;;;;;57.30;32.08;;;;;;;5.42;43.61;101486.88;2777866;85;21693;-73
2022/03/12 08:43:25;;;;;;;78.85;43.40;;;;;;;5.52;43.44;101487.36;2793647;83;21047;-76
2022/03/12 08:47:27;;;;;;;40.92;26.02;;;;;;;5.72;42.43;101491.34;2790659;85;23350;-78
2022/03/12 08:51:29;;;;;;;50.33;27.48;;;;;;;5.90;42.21;101489.32;2787186;85;21587;-76
2022/03/12 08:55:31;;;;;;;48.75;28.02;;;;;;;6.00;41.90;101495.91;2786663;85;21417;-77
2022/03/12 08:59:43;;;;;;;40.25;22.87;;;;;;;6.12;41.32;101499.83;2786550;85;21015;-79
2022/03/12 09:03:49;;;;;;;47.30;30.08;;;;;;;6.31;40.81;101495.05;2786676;85;21146;-74
2022/03/12 09:08:03;;;;;;;36.33;21.55;;;;;;;6.47;41.32;101493.44;2797693;84;21102;-79
2022/03/12 09:12:05;;;;;;;22.55;15.03;;;;;;;6.50;41.86;101475.27;2792707;84;21072;-77
2022/03/12 09:16:10;;;;;;;20.30;14.50;;;;;;;6.50;40.24;101483.20;2795237;84;21110;-77
2022/03/12 09:20:14;;;;;;;25.30;15.43;;;;;;;6.64;40.21;101472.83;2802685;84;21081;-77
2022/03/12 09:24:25;;;;;;;34.70;18.12;;;;;;;6.82;39.65;101473.78;2802990;84;21059;-78
2022/03/12 09:28:38;;;;;;;22.80;12.93;;;;;;;6.90;39.04;101473.42;2802950;84;21062;-77
2022/03/12 09:32:38;;;;;;;25.88;14.03;;;;;;;6.96;39.00;101472.24;2781350;84;21086;-79
2022/03/12 09:36:49;;;;;;;35.25;18.50;;;;;;;7.10;38.98;101463.67;2799179;84;21479;-77
2022/03/12 09:40:54;;;;;;;36.10;11.78;;;;;;;7.33;39.07;101462.52;2803452;84;21625;-76
2022/03/12 09:44:59;;;;;;;20.20;14.83;;;;;;;7.34;37.88;101462.91;2803430;84;21086;-77
2022/03/12 09:49:01;;;;;;;25.37;15.08;;;;;;;7.55;37.82;101460.99;2803454;84;21078;-77
2022/03/12 09:53:12;;;;;;;19.00;13.65;;;;;;;7.68;37.70;101465.20;2801180;83;21078;-76
2022/03/12 09:57:22;;;;;;;24.30;14.87;;;;;;;7.71;37.38;101456.25;2794564;84;21020;-72
2022/03/12 10:01:24;;;;;;;23.67;13.50;;;;;;;7.81;37.04;101451.34;2795212;84;21048;-77
2022/03/12 10:05:27;;;;;;;18.70;13.95;;;;;;;7.82;38.60;101456.54;2805855;82;21044;-78
2022/03/12 10:09:33;;;;;;;29.42;17.85;;;;;;;7.97;36.52;101445.63;2780838;85;21589;-77
2022/03/12 10:13:35;;;;;;;;;;;;;;;8.15;37.71;101432.32;2829481;83;21719;-77
2022/03/12 10:17:37;;;;;;;20.70;10.55;;;;;;;8.18;36.09;101423.36;2827087;83;20144;-75
2022/03/12 10:21:42;;;;;;;13.22;9.45;;;;;;;8.27;35.05;101419.74;2778141;85;21042;-78
2022/03/12 10:25:42;;;;;;;19.05;9.98;;;;;;;8.31;35.63;101412.48;2827461;84;21055;-76
2022/03/12 10:29:44;;;;;;;12.88;8.68;;;;;;;8.62;34.96;101402.02;2753845;85;21095;-78
2022/03/12 10:33:46;;;;;;;16.17;12.03;;;;;;;8.73;34.71;101398.77;2805395;84;21007;-78
2022/03/12 10:37:51;;;;;;;14.65;10.18;;;;;;;8.80;33.80;101397.47;2806365;84;21121;-75
2022/03/12 10:42:00;;;;;;;16.55;12.78;;;;;;;8.88;34.71;101399.23;2806334;84;21606;-77
2022/03/12 10:46:01;;;;;;;9.83;7.35;;;;;;;9.08;33.66;101399.88;2806707;84;21050;-78
2022/03/12 10:50:11;;;;;;;16.67;12.85;;;;;;;9.07;33.87;101403.48;2806410;84;21086;-76
2022/03/12 10:54:15;;;;;;;18.02;10.95;;;;;;;9.21;33.19;101403.52;2803157;83;21034;-78
2022/03/12 10:58:27;;;;;;;16.50;10.82;;;;;;;9.30;33.51;101398.14;2800524;83;21063;-75
2022/03/12 11:02:29;;;;;;;59.27;17.65;;;;;;;9.19;33.47;101400.59;2797928;83;21054;-73
2022/03/12 11:06:32;;;;;;;11.35;7.85;;;;;;;9.24;33.31;101398.05;2783754;84;21595;-74
2022/03/12 11:10:37;;;;;;;14.10;9.75;;;;;;;9.45;32.58;101391.09;2782549;85;21008;-76
2022/03/12 11:14:40;;;;;;;13.95;7.53;;;;;;;9.40;32.41;101392.69;2788906;85;21035;-76
2022/03/12 11:18:58;;;;;;;14.30;8.23;;;;;;;9.40;32.43;101390.03;2788751;85;21651;-76
2022/03/12 11:23:27;;;;;;;13.05;8.03;;;;;;;9.46;32.82;101386.16;2788185;85;21046;-75
2022/03/12 11:27:31;;;;;;;12.13;7.50;;;;;;;9.55;32.96;101382.94;2786277;85;21074;-74
2022/03/12 11:31:51;;;;;;;20.95;10.82;;;;;;;9.50;34.03;101374.39;2787479;85;21028;-74
2022/03/12 11:36:00;;;;;;;14.55;10.20;;;;;;;9.74;34.01;101377.84;2765203;85;21083;-75
2022/03/12 11:40:05;;;;;;;9.00;7.30;;;;;;;9.86;32.69;101374.44;2742316;86;21050;-70
2022/03/12 11:44:09;;;;;;;14.53;10.23;;;;;;;9.79;32.29;101369.10;2757715;83;21083;-75
2022/03/12 11:48:11;;;;;;;10.95;8.28;;;;;;;9.88;32.61;101364.19;2787686;85;21122;-75
2022/03/12 11:52:16;;;;;;;13.03;6.25;;;;;;;9.95;32.54;101365.05;2787707;85;21110;-73
2022/03/12 11:56:18;;;;;;;12.03;6.87;;;;;;;9.93;32.55;101358.11;2787557;85;21094;-74
2022/03/12 12:00:29;;;;;;;11.25;7.10;;;;;;;9.96;32.26;101353.92;2787673;85;21106;-74
2022/03/12 12:04:32;;;;;;;13.05;9.00;;;;;;;9.93;33.92;101361.63;2792752;83;21067;-69
2022/03/12 12:08:34;;;;;;;14.68;7.15;;;;;;;9.94;32.53;101346.06;2795019;84;21115;-70
2022/03/12 12:12:35;;;;;;;10.53;8.53;;;;;;;9.95;32.33;101345.11;2801962;84;21113;-70
2022/03/12 12:16:37;;;;;;;19.05;10.30;;;;;;;9.97;33.47;101334.36;2803166;84;21065;-68
2022/03/12 12:20:41;;;;;;;17.82;8.90;;;;;;;9.97;32.71;101339.22;2802040;84;21078;-69
2022/03/12 12:24:45;;;;;;;8.38;7.10;;;;;;;10.04;33.01;101333.51;2799904;84;21063;-67
2022/03/12 12:28:51;;;;;;;10.32;8.65;;;;;;;10.00;33.41;101330.18;2802403;83;22338;-75
2022/03/12 12:32:53;;;;;;;12.90;7.72;;;;;;;9.99;32.96;101331.13;2800607;84;21110;-74
2022/03/12 12:37:03;;;;;;;17.85;9.00;;;;;;;10.03;33.24;101328.69;2803539;84;21070;-74
2022/03/12 12:41:04;;;;;;;35.48;24.20;;;;;;;10.05;32.57;101313.48;2802840;84;21051;-69
2022/03/12 12:45:12;;;;;;;13.40;7.12;;;;;;;10.09;32.18;101313.66;2801046;84;21117;-71
2022/03/12 12:49:16;;;;;;;14.18;7.20;;;;;;;9.97;32.20;101313.97;2813953;83;21058;-71
2022/03/12 12:53:30;;;;;;;16.52;9.33;;;;;;;9.98;32.31;101306.38;2785003;83;21082;-71
2022/03/12 12:57:41;;;;;;;9.73;6.97;;;;;;;10.01;31.78;101297.33;2807454;83;21020;-71
2022/03/12 13:01:49;;;;;;;8.78;5.42;;;;;;;9.96;32.38;101303.42;2802932;83;21037;-70
2022/03/12 13:05:54;;;;;;;17.85;10.45;;;;;;;10.10;32.52;101291.91;2795523;85;21033;-71
2022/03/12 13:09:58;;;;;;;9.93;6.90;;;;;;;10.20;32.26;101294.83;2806302;84;21058;-71
2022/03/12 13:14:05;;;;;;;10.70;6.28;;;;;;;10.20;31.37;101305.47;2810617;84;21498;-71
2022/03/12 13:18:27;;;;;;;10.05;6.92;;;;;;;10.22;31.12;101297.78;2811481;84;21091;-71
2022/03/12 13:22:43;;;;;;;15.95;7.72;;;;;;;10.26;32.28;101291.30;2811054;84;21044;-70
2022/03/12 13:26:45;;;;;;;13.90;7.58;;;;;;;10.24;33.28;101295.03;2813606;84;21052;-73
2022/03/12 13:30:46;;;;;;;14.90;9.60;;;;;;;10.23;32.03;101292.84;2808071;83;21906;-78
2022/03/12 13:34:49;;;;;;;14.28;8.85;;;;;;;10.24;31.62;101288.39;2809512;84;21291;-74
2022/03/12 13:38:52;;;;;;;14.50;9.85;;;;;;;10.24;32.82;101278.59;2812391;84;21121;-74
2022/03/12 13:42:58;;;;;;;20.05;11.20;;;;;;;10.25;32.68;101277.63;2812666;84;21109;-74
2022/03/12 13:47:01;;;;;;;19.47;10.37;;;;;;;10.32;33.12;101266.59;2812313;84;21062;-76
2022/03/12 13:51:02;;;;;;;16.15;11.28;;;;;;;10.22;32.58;101268.98;2810829;84;21729;-75
2022/03/12 13:55:07;;;;;;;18.55;10.90;;;;;;;10.22;33.07;101265.87;2811292;84;21506;-77
2022/03/12 13:59:13;;;;;;;13.45;10.78;;;;;;;10.21;33.13;101251.33;2787318;84;21633;-75
2022/03/12 14:03:15;;;;;;;19.67;10.45;;;;;;;10.23;33.75;101262.75;2810859;84;21053;-80
2022/03/12 14:07:19;;;;;;;15.30;9.85;;;;;;;10.14;33.02;101261.05;2806587;84;21315;-74
2022/03/12 14:11:35;;;;;;;15.45;10.43;;;;;;;10.22;33.39;101259.69;2805651;84;21078;-72
2022/03/12 14:15:36;;;;;;;18.73;10.80;;;;;;;10.26;33.78;101259.89;2804791;84;21045;-74
2022/03/12 14:19:38;;;;;;;16.73;11.00;;;;;;;10.26;33.29;101259.39;2795264;84;21062;-74
2022/03/12 14:23:40;;;;;;;20.43;14.30;;;;;;;10.27;34.31;101253.13;2760609;86;21105;-83
2022/03/12 14:27:46;;;;;;;36.30;23.57;;;;;;;10.27;33.77;101248.30;2760362;86;21110;-83
2022/03/12 14:32:06;;;;;;;17.70;12.95;;;;;;;10.25;33.63;101239.56;2795793;84;21116;-75
2022/03/12 14:36:08;;;;;;;16.77;12.65;;;;;;;10.11;33.04;101237.32;2809085;84;21092;-80
2022/03/12 14:40:34;;;;;;;15.78;12.15;;;;;;;10.10;33.42;101233.42;2830517;84;21084;-82
2022/03/12 14:44:38;;;;;;;14.87;10.30;;;;;;;10.13;33.92;101231.42;2828791;82;21043;-81
2022/03/12 14:48:57;;;;;;;17.15;11.90;;;;;;;10.11;33.40;101228.48;2835354;83;21073;-82
2022/03/12 14:52:56;;;;;;;19.73;10.80;;;;;;;10.18;33.27;101217.84;2843449;82;21036;-79
2022/03/12 14:57:04;;;;;;;;;;;;;;;10.18;33.79;101218.30;2826261;83;21001;-82
2022/03/12 15:01:06;;;;;;;;;;;;;;;10.19;33.34;101226.66;2811422;84;20205;-79
2022/03/12 15:05:11;;;;;;;15.28;10.80;;;;;;;10.17;33.22;101216.14;2786659;83;20559;-81
2022/03/12 15:09:12;;;;;;;20.23;12.90;;;;;;;10.15;32.49;101213.56;2753473;85;21110;-81
2022/03/12 15:13:14;;;;;;;16.93;10.05;;;;;;;10.16;33.37;101215.77;2746523;86;21658;-82
2022/03/12 15:17:31;;;;;;;32.93;18.35;;;;;;;10.07;32.84;101209.23;2745944;86;21082;-81
2022/03/12 15:21:34;;;;;;;18.52;14.25;;;;;;;10.09;32.86;101209.12;2742851;86;21066;-78
2022/03/12 15:25:43;;;;;;;16.60;10.20;;;;;;;10.06;33.08;101207.53;2742071;86;21575;-82
2022/03/12 15:29:58;;;;;;;16.42;9.90;;;;;;;10.04;33.43;101205.45;2742286;86;21050;-77
2022/03/12 15:34:11;;;;;;;12.40;8.43;;;;;;;9.97;32.75;101198.81;2740903;86;21078;-79
2022/03/12 15:38:13;;;;;;;11.88;9.73;;;;;;;9.93;32.92;101203.95;2732738;85;21078;-80
2022/03/12 15:42:15;;;;;;;16.52;11.20;;;;;;;9.90;33.24;101202.34;2748398;85;21124;-79
2022/03/12 15:46:18;;;;;;;13.85;10.05;;;;;;;9.83;33.16;101199.25;2819150;83;21023;-83
2022/03/12 15:50:20;;;;;;;19.05;12.47;;;;;;;9.78;33.74;101202.65;2835287;83;21033;-84
2022/03/12 15:54:22;;;;;;;12.93;10.10;;;;;;;9.74;33.84;101206.95;2835282;83;21062;-85
2022/03/12 15:58:24;;;;;;;11.78;8.50;;;;;;;9.65;33.90;101203.91;2835033;83;21035;-84
2022/03/12 16:02:25;;;;;;;11.88;7.83;;;;;;;9.55;33.85;101203.64;2804178;83;21061;-80
2022/03/12 16:06:27;;;;;;;11.28;7.70;;;;;;;9.49;34.10;101207.16;2788062;85;21578;-86
2022/03/12 16:10:31;;;;;;;10.90;7.60;;;;;;;9.42;34.25;101206.67;2800482;84;21008;-83
2022/03/12 16:14:35;;;;;;;12.35;8.38;;;;;;;9.29;34.18;101209.25;2847733;83;21031;-82
2022/03/12 16:18:39;;;;;;;9.90;7.35;;;;;;;9.18;34.75;101207.25;2813177;83;21030;-72
2022/03/12 16:22:45;;;;;;;10.78;7.95;;;;;;;9.11;35.39;101212.56;2752862;86;21137;-87
2022/03/12 16:26:52;;;;;;;15.18;8.48;;;;;;;8.95;35.68;101209.52;2752009;86;21078;-75
2022/03/12 16:30:54;;;;;;;10.95;7.12;;;;;;;8.74;36.78;101208.15;2781259;83;21076;-73
2022/03/12 16:34:56;;;;;;;13.68;9.53;;;;;;;8.54;37.65;101204.88;2823912;83;21060;-72
2022/03/12 16:38:59;;;;;;;9.75;7.78;;;;;;;8.26;38.25;101209.95;2844492;83;21588;-72
2022/03/12 16:43:01;;;;;;;14.60;9.63;;;;;;;7.97;39.12;101203.66;2844663;83;21060;-85
2022/03/12 16:47:03;;;;;;;15.72;9.83;;;;;;;7.66;39.54;101196.08;2844083;83;21045;-78
2022/03/12 16:51:05;;;;;;;18.07;10.23;;;;;;;7.39;39.51;101201.95;2844235;83;21028;-77
2022/03/12 16:55:08;;;;;;;13.03;9.63;;;;;;;7.22;39.77;101212.13;2843896;83;21052;-77
2022/03/12 16:59:09;;;;;;;13.38;8.75;;;;;;;7.04;40.00;101213.48;2845161;83;21056;-72
2022/03/12 17:03:11;;;;;;;12.78;8.78;;;;;;;6.86;39.73;101208.66;2844066;83;21087;-77
2022/03/12 17:07:13;;;;;;;24.77;15.55;;;;;;;6.68;40.03;101213.98;2844009;83;21080;-72
2022/03/12 17:11:19;;;;;;;36.33;16.73;;;;;;;6.55;40.46;101207.59;2831944;84;21013;-72
2022/03/12 17:15:21;;;;;;;25.68;18.87;;;;;;;6.42;40.56;101213.95;2831597;84;21057;-71
2022/03/12 17:19:26;;;;;;;17.57;12.93;;;;;;;6.28;40.43;101213.29;2831759;83;21627;-72
2022/03/12 17:23:28;;;;;;;16.95;11.97;;;;;;;6.20;40.77;101214.14;2831176;83;21076;-72
2022/03/12 17:27:30;;;;;;;19.52;13.62;;;;;;;6.08;40.60;101211.16;2831020;83;21633;-77
2022/03/12 17:31:32;;;;;;;34.55;21.25;;;;;;;5.96;40.69;101209.92;2831880;83;21087;-75
2022/03/12 17:35:34;;;;;;;51.77;31.48;;;;;;;5.90;41.09;101206.75;2831650;84;21049;-76
2022/03/12 17:39:36;;;;;;;52.25;27.60;;;;;;;5.82;41.18;101213.23;2831898;83;21421;-77
2022/03/12 17:43:37;;;;;;;48.78;27.67;;;;;;;5.68;41.89;101213.01;2831893;83;21060;-79
2022/03/12 17:47:40;;;;;;;52.15;30.20;;;;;;;5.51;42.10;101217.31;2831883;84;21010;-78
2022/03/12 17:51:43;;;;;;;65.22;30.72;;;;;;;5.42;42.11;101213.75;2831622;83;21155;-77
2022/03/12 17:55:45;;;;;;;46.63;29.23;;;;;;;5.27;42.57;101221.42;2831795;83;21092;-78
2022/03/12 17:59:46;;;;;;;49.42;29.25;;;;;;;5.10;43.41;101214.72;2831656;83;21553;-78
2022/03/12 18:03:48;;;;;;;48.10;29.95;;;;;;;5.03;43.41;101210.65;2764220;86;21058;-78
2022/03/12 18:07:51;;;;;;;96.35;36.00;;;;;;;4.92;43.55;101215.95;2763761;86;21200;-78
2022/03/12 18:11:53;;;;;;;46.05;27.37;;;;;;;4.83;43.50;101210.61;2760158;86;21081;-77
2022/03/12 18:15:55;;;;;;;61.05;32.03;;;;;;;4.83;43.69;101209.73;2760107;86;21104;-77
2022/03/12 18:19:58;;;;;;;54.20;35.20;;;;;;;4.82;43.74;101210.21;2760453;86;21054;-78
2022/03/12 18:24:00;;;;;;;70.90;33.08;;;;;;;4.75;44.12;101211.86;2760397;86;21019;-79
2022/03/12 18:28:03;;;;;;;56.45;30.37;;;;;;;4.63;44.83;101207.48;2798090;84;21058;-76
2022/03/12 18:32:07;;;;;;;60.33;37.13;;;;;;;4.48;45.09;101207.67;2801222;84;21055;-82
2022/03/12 18:36:09;;;;;;;63.92;33.00;;;;;;;4.39;45.30;101212.86;2797143;85;21336;-71
2022/03/12 18:40:20;;;;;;;44.13;28.83;;;;;;;4.19;45.93;101212.34;2796650;85;21528;-75
2022/03/12 18:44:22;;;;;;;50.00;28.60;;;;;;;4.14;46.16;101205.97;2797428;85;21035;-81